Time;durP1;ratioP1;P1;durP2;ratioP2;P2;SDS_P1;SDS_P2;PMS_P1;PMS_P2;Temp;Humidity;BMP_temperature;BMP_pressure;BME280_temperature;BME280_humidity;BME280_pressure;Samples;Min_cycle;Max_cycle;Signal;HPM_P1;HPM_P2
2022/06/04 00:01:41;;;;;;;8.82;5.95;;;9.60;99.90;;;;;;4767659;30;20031;-70
2022/06/04 00:04:07;;;;;;;12.48;6.32;;;9.60;99.90;;;;;;4770158;30;20024;-70
2022/06/04 00:06:34;;;;;;;12.85;6.45;;;9.50;99.90;;;;;;4770133;30;20035;-70
2022/06/04 00:08:59;;;;;;;10.40;5.75;;;9.60;99.90;;;;;;4770008;30;20024;-71
2022/06/04 00:16:54;;;;;;;9.02;4.95;;;9.60;99.90;;;;;;4755208;30;20034;-70
2022/06/04 00:19:21;;;;;;;12.40;7.22;;;9.70;99.90;;;;;;4769350;30;20031;-70
2022/06/04 00:21:48;;;;;;;12.23;5.53;;;9.60;99.90;;;;;;4769811;30;20042;-69
2022/06/04 00:24:14;;;;;;;12.10;7.28;;;9.70;99.90;;;;;;4758440;30;20029;-70
2022/06/04 00:26:40;;;;;;;14.25;7.38;;;9.70;99.90;;;;;;4769661;30;20039;-70
2022/06/04 00:29:07;;;;;;;10.57;7.07;;;9.70;99.90;;;;;;4757693;30;20111;-70
2022/06/04 00:31:32;;;;;;;12.07;6.88;;;9.60;99.90;;;;;;4770061;30;20035;-70
2022/06/04 00:33:58;;;;;;;10.32;5.35;;;9.60;99.90;;;;;;4769627;30;20032;-70
2022/06/04 00:36:24;;;;;;;12.38;7.15;;;9.70;99.90;;;;;;4769575;30;20028;-70
2022/06/04 00:38:49;;;;;;;16.95;6.72;;;9.70;99.90;;;;;;4769143;30;20400;-70
2022/06/04 00:41:43;;;;;;;10.57;5.18;;;9.60;99.90;;;;;;4752173;30;20106;-70
2022/06/04 00:44:13;;;;;;;13.75;6.10;;;9.60;99.90;;;;;;4764909;30;20141;-70
2022/06/04 00:46:42;;;;;;;10.52;6.00;;;9.60;99.90;;;;;;4769852;30;20030;-71
2022/06/04 00:49:10;;;;;;;11.13;6.25;;;9.70;99.90;;;;;;4769386;30;20035;-70
2022/06/04 00:51:37;;;;;;;11.18;6.18;;;9.60;99.90;;;;;;4769365;30;20492;-70
2022/06/04 00:54:04;;;;;;;10.77;5.75;;;9.60;99.90;;;;;;4769131;30;20435;-70
2022/06/04 00:56:48;;;;;;;12.50;6.07;;;9.70;99.90;;;;;;4769544;30;20035;-71
2022/06/04 00:59:19;;;;;;;11.57;4.38;;;9.60;99.90;;;;;;4769493;30;20036;-70
2022/06/04 01:01:57;;;;;;;9.77;5.63;;;9.60;99.90;;;;;;4769414;30;20063;-70
2022/06/04 01:07:33;;;;;;;13.13;5.63;;;9.50;99.90;;;;;;4769233;30;20566;-69
2022/06/04 01:10:17;;;;;;;11.10;5.05;;;9.50;99.90;;;;;;4769293;30;20043;-69
2022/06/04 01:12:50;;;;;;;13.68;7.05;;;9.50;99.90;;;;;;4751406;30;20457;-69
2022/06/04 01:15:43;;;;;;;14.88;5.82;;;9.50;99.90;;;;;;4753068;30;20505;-70
2022/06/04 01:18:14;;;;;;;9.25;4.78;;;9.40;99.90;;;;;;4769211;30;20043;-70
2022/06/04 01:21:14;;;;;;;12.05;5.40;;;9.40;99.90;;;;;;4751587;30;20030;-71
2022/06/04 01:23:55;;;;;;;13.13;6.30;;;9.40;99.90;;;;;;4759518;30;20036;-69
2022/06/04 01:26:20;;;;;;;13.68;5.72;;;9.40;99.90;;;;;;4769191;30;20462;-70
2022/06/04 01:29:00;;;;;;;9.70;4.80;;;9.30;99.90;;;;;;4769115;30;20036;-70
2022/06/04 01:31:49;;;;;;;11.48;5.45;;;9.20;99.90;;;;;;4769582;30;20036;-69
2022/06/04 01:34:21;;;;;;;11.10;5.00;;;9.20;99.90;;;;;;4769124;30;20032;-69
2022/06/04 01:37:15;;;;;;;10.43;4.45;;;9.10;99.90;;;;;;4769144;30;20107;-69
2022/06/04 01:42:32;;;;;;;6.07;3.40;;;9.10;99.90;;;;;;4751618;30;20040;-70
2022/06/04 01:44:59;;;;;;;8.05;4.53;;;9.10;99.90;;;;;;4751272;30;20035;-70
2022/06/04 01:47:28;;;;;;;7.57;4.95;;;9.00;99.90;;;;;;4751213;30;20086;-69
2022/06/04 01:49:56;;;;;;;9.75;5.20;;;9.10;99.90;;;;;;4756486;30;20024;-70
2022/06/04 01:52:28;;;;;;;5.47;3.38;;;9.00;99.90;;;;;;4752451;30;20032;-70
2022/06/04 01:54:59;;;;;;;5.63;2.53;;;9.00;99.90;;;;;;4768950;30;20489;-70
2022/06/04 01:57:35;;;;;;;11.27;4.53;;;9.00;99.90;;;;;;4769094;30;20028;-70
2022/06/04 02:00:07;;;;;;;9.38;4.68;;;9.00;99.90;;;;;;4769004;30;20094;-70
2022/06/04 02:02:57;;;;;;;7.45;3.53;;;9.00;99.90;;;;;;4763324;30;20093;-71
2022/06/04 02:05:34;;;;;;;9.43;4.47;;;9.10;99.90;;;;;;4768679;30;20075;-70
2022/06/04 02:08:04;;;;;;;8.63;3.90;;;8.90;99.90;;;;;;4751111;30;20281;-70
2022/06/04 02:10:35;;;;;;;6.20;2.50;;;9.00;99.90;;;;;;4763238;30;20036;-69
2022/06/04 02:13:06;;;;;;;9.05;4.57;;;9.00;99.90;;;;;;4768692;30;20520;-70
2022/06/04 02:15:57;;;;;;;;;;;8.90;99.90;;;;;;4769186;30;20089;-70
2022/06/04 02:18:23;;;;;;;9.55;3.92;;;8.90;99.90;;;;;;4768156;30;19959;-70
2022/06/04 02:20:49;;;;;;;11.25;4.75;;;8.90;99.90;;;;;;4771874;30;20035;-69
2022/06/04 02:23:15;;;;;;;7.10;4.25;;;8.90;99.90;;;;;;4771919;30;20059;-70
2022/06/04 02:25:41;;;;;;;7.47;3.55;;;8.90;99.90;;;;;;4771670;30;20030;-70
2022/06/04 02:28:07;;;;;;;8.00;4.65;;;8.90;99.90;;;;;;4771701;30;20032;-70
2022/06/04 02:31:05;;;;;;;9.15;4.75;;;8.80;99.90;;;;;;4771948;30;20035;-70
2022/06/04 02:33:47;;;;;;;10.65;4.88;;;8.80;99.90;;;;;;4753572;30;20044;-69
2022/06/04 02:36:27;;;;;;;8.25;4.53;;;8.80;99.90;;;;;;4754002;30;20060;-69
2022/06/04 02:38:58;;;;;;;9.20;4.30;;;8.80;99.90;;;;;;4753775;30;20048;-70
2022/06/04 02:41:29;;;;;;;7.93;3.72;;;8.70;99.90;;;;;;4754146;30;20036;-70
2022/06/04 02:43:58;;;;;;;;;;;8.80;99.90;;;;;;4754293;30;20067;-70
2022/06/04 02:46:29;;;;;;;9.07;4.18;;;8.70;99.90;;;;;;4753969;30;20002;-70
2022/06/04 02:49:09;;;;;;;5.55;2.72;;;8.60;99.90;;;;;;4753858;30;20063;-70
2022/06/04 02:51:51;;;;;;;11.00;3.88;;;8.70;99.90;;;;;;4771536;30;20042;-69
2022/06/04 02:54:52;;;;;;;9.75;4.05;;;8.60;99.90;;;;;;4769184;30;20116;-70
2022/06/04 02:57:18;;;;;;;7.18;4.20;;;8.70;99.90;;;;;;4749287;30;20044;-70
2022/06/04 02:59:46;;;;;;;9.20;4.28;;;8.70;99.90;;;;;;4753456;30;20065;-70
2022/06/04 03:02:14;;;;;;;8.38;4.15;;;8.70;99.90;;;;;;4753442;30;20040;-71
2022/06/04 03:04:51;;;;;;;9.23;4.28;;;8.70;99.90;;;;;;4753308;30;20024;-70
2022/06/04 03:07:18;;;;;;;6.28;3.95;;;8.70;99.90;;;;;;4753479;30;20036;-70
2022/06/04 03:09:46;;;;;;;8.90;3.85;;;8.70;99.90;;;;;;4756988;30;20080;-70
2022/06/04 03:12:12;;;;;;;10.40;4.00;;;8.70;99.90;;;;;;4771174;30;20036;-69
2022/06/04 03:14:38;;;;;;;8.65;3.95;;;8.70;99.90;;;;;;4771306;30;20066;-70
2022/06/04 03:17:07;;;;;;;7.22;4.07;;;8.70;99.90;;;;;;4771082;30;20067;-71
2022/06/04 03:19:33;;;;;;;8.55;4.18;;;8.60;99.90;;;;;;4769598;30;20476;-70
2022/06/04 03:22:00;;;;;;;11.38;4.53;;;8.60;99.90;;;;;;4759745;30;20046;-69
2022/06/04 03:24:26;;;;;;;8.43;3.63;;;8.60;99.90;;;;;;4771110;30;20031;-70
2022/06/04 03:26:52;;;;;;;7.47;4.72;;;8.70;99.90;;;;;;4770751;30;20032;-70
2022/06/04 03:29:18;;;;;;;6.55;3.45;;;8.70;99.90;;;;;;4770389;30;20070;-70
2022/06/04 03:31:44;;;;;;;9.27;4.50;;;8.70;99.90;;;;;;4770025;30;20469;-70
2022/06/04 03:34:11;;;;;;;8.80;3.80;;;8.70;99.90;;;;;;4770969;30;20043;-70
2022/06/04 03:36:37;;;;;;;7.97;3.97;;;8.80;99.90;;;;;;4770760;30;20038;-70
2022/06/04 03:39:04;;;;;;;8.23;3.97;;;8.70;99.90;;;;;;4770562;30;20032;-69
2022/06/04 03:41:29;;;;;;;8.02;4.53;;;8.70;99.90;;;;;;4770537;30;20039;-70
2022/06/04 03:43:55;;;;;;;4.38;2.85;;;8.70;99.90;;;;;;4770516;30;20039;-69
2022/06/04 03:46:25;;;;;;;7.05;3.38;;;8.90;99.90;;;;;;4770521;30;20028;-70
2022/06/04 03:48:52;;;;;;;3.78;2.60;;;8.90;99.90;;;;;;4770375;30;20044;-69
2022/06/04 03:51:17;;;;;;;7.03;3.40;;;9.00;99.90;;;;;;4770329;30;20032;-69
2022/06/04 03:53:43;;;;;;;7.47;3.88;;;9.00;99.90;;;;;;4770221;30;20054;-71
2022/06/04 03:56:09;;;;;;;9.18;3.85;;;9.00;99.90;;;;;;4770376;30;20154;-70
2022/06/04 03:58:34;;;;;;;7.57;3.55;;;9.00;99.90;;;;;;4770142;30;20035;-70
2022/06/04 04:01:00;;;;;;;5.85;3.67;;;9.10;99.90;;;;;;4770179;30;20077;-70
2022/06/04 04:03:26;;;;;;;6.15;3.42;;;9.20;99.90;;;;;;4770118;30;20475;-69
2022/06/04 04:05:54;;;;;;;3.60;2.53;;;9.40;99.90;;;;;;4768620;30;20088;-69
2022/06/04 04:08:21;;;;;;;5.70;3.92;;;11.10;1.00;;;;;;4768204;30;20050;-69
2022/06/04 04:10:47;;;;;;;6.20;3.45;;;12.30;99.90;;;;;;4758234;30;20031;-70
2022/06/04 04:13:15;;;;;;;8.57;3.80;;;13.00;99.90;;;;;;4769861;30;20031;-69
2022/06/04 04:15:42;;;;;;;5.65;3.28;;;13.40;99.90;;;;;;4769879;30;20039;-70
2022/06/04 04:18:08;;;;;;;10.13;3.55;;;13.80;99.90;;;;;;4770143;30;20032;-70
2022/06/04 04:20:37;;;;;;;9.15;3.45;;;13.00;99.90;;;;;;4769814;30;20089;-70
2022/06/04 04:23:05;;;;;;;6.50;3.67;;;13.30;99.90;;;;;;4754522;30;20127;-70
2022/06/04 04:25:32;;;;;;;4.30;2.83;;;14.80;99.90;;;;;;4769830;30;20027;-69
2022/06/04 04:27:59;;;;;;;8.30;3.78;;;13.70;99.90;;;;;;4769768;30;20066;-70
2022/06/04 04:30:29;;;;;;;5.47;3.25;;;12.80;99.90;;;;;;4769565;30;20488;-69
2022/06/04 04:32:55;;;;;;;5.03;2.97;;;12.30;99.90;;;;;;4769668;30;20028;-70
2022/06/04 04:35:24;;;;;;;6.20;3.22;;;12.40;99.90;;;;;;4768074;30;20043;-71
2022/06/04 04:37:50;;;;;;;4.43;3.00;;;12.10;99.90;;;;;;4767998;30;20040;-70
2022/06/04 04:40:19;;;;;;;5.78;3.38;;;12.00;99.90;;;;;;4768370;30;20496;-70
2022/06/04 04:42:45;;;;;;;10.30;3.80;;;13.30;99.90;;;;;;4767917;30;20862;-70
2022/06/04 04:45:12;;;;;;;7.85;4.05;;;15.30;99.90;;;;;;4767994;30;20072;-70
2022/06/04 04:47:40;;;;;;;5.30;3.50;;;14.30;99.90;;;;;;4768107;30;20122;-71
2022/06/04 04:50:10;;;;;;;5.70;3.97;;;13.30;99.90;;;;;;4768278;30;20384;-70
2022/06/04 04:52:36;;;;;;;9.40;4.40;;;13.60;99.90;;;;;;4768006;30;20111;-70
2022/06/04 04:55:02;;;;;;;6.60;3.85;;;15.30;99.90;;;;;;4768158;30;20119;-71
2022/06/04 04:57:28;;;;;;;5.93;3.58;;;14.60;99.90;;;;;;4768098;30;20042;-71
2022/06/04 04:59:54;;;;;;;5.93;4.05;;;13.80;99.90;;;;;;4768051;30;20670;-70
2022/06/04 05:02:20;;;;;;;7.70;3.97;;;14.10;99.90;;;;;;4767679;30;20035;-70
2022/06/04 05:04:46;;;;;;;6.35;3.67;;;14.80;99.90;;;;;;4768136;30;20114;-70
2022/06/04 05:07:12;;;;;;;4.93;3.90;;;14.70;99.90;;;;;;4755969;30;20033;-70
2022/06/04 05:09:39;;;;;;;7.35;3.92;;;14.90;99.90;;;;;;4750038;30;20072;-70
2022/06/04 05:12:09;;;;;;;8.15;3.40;;;15.50;99.90;;;;;;4749933;30;20036;-71
2022/06/04 05:14:36;;;;;;;3.75;2.67;;;17.50;48.30;;;;;;4754858;30;20461;-71
2022/06/04 05:17:02;;;;;;;5.72;3.20;;;19.10;5.50;;;;;;4768059;30;20144;-71
2022/06/04 05:19:28;;;;;;;2.90;2.28;;;20.50;1.00;;;;;;4768815;30;20071;-71
2022/06/04 05:21:55;;;;;;;5.07;2.83;;;20.20;1.00;;;;;;4769407;30;20039;-70
2022/06/04 05:24:32;;;;;;;6.35;3.00;;;21.30;1.00;;;;;;4769397;30;20460;-71
2022/06/04 05:26:59;;;;;;;3.58;1.42;;;21.60;1.00;;;;;;4769064;30;20129;-70
2022/06/04 05:29:25;;;;;;;4.20;2.65;;;21.80;1.00;;;;;;4769103;30;20036;-70
2022/06/04 05:31:53;;;;;;;2.80;2.42;;;21.20;1.00;;;;;;4768998;30;20106;-70
2022/06/04 05:34:19;;;;;;;3.38;2.38;;;21.90;1.00;;;;;;4769338;30;20020;-70
2022/06/04 05:36:46;;;;;;;2.22;2.03;;;22.10;1.00;;;;;;4769033;30;20471;-71
2022/06/04 05:39:13;;;;;;;5.10;1.65;;;21.90;1.00;;;;;;4766471;30;20089;-70
2022/06/04 05:41:39;;;;;;;3.25;1.67;;;22.30;1.00;;;;;;4754102;30;20516;-70
2022/06/04 05:44:05;;;;;;;4.13;2.45;;;22.90;1.00;;;;;;4768848;30;20035;-71
2022/06/04 05:46:31;;;;;;;3.83;2.20;;;22.70;1.00;;;;;;4768784;30;20103;-70
2022/06/04 05:48:59;;;;;;;2.42;1.60;;;22.20;1.00;;;;;;4768878;30;20043;-70
2022/06/04 05:51:27;;;;;;;4.10;2.20;;;22.60;1.00;;;;;;4769481;30;20067;-70
2022/06/04 05:53:53;;;;;;;3.15;2.08;;;22.20;1.00;;;;;;4769944;30;20071;-70
2022/06/04 05:56:25;;;;;;;2.88;2.15;;;24.00;1.00;;;;;;4772442;30;20656;-70
2022/06/04 05:58:55;;;;;;;2.25;2.05;;;23.00;1.00;;;;;;4772255;30;20032;-70
2022/06/04 06:01:22;;;;;;;2.55;1.77;;;22.50;1.00;;;;;;4772339;30;20030;-70
2022/06/04 06:03:48;;;;;;;4.22;1.70;;;22.30;1.00;;;;;;4772113;30;20042;-70
2022/06/04 06:06:17;;;;;;;3.42;2.25;;;22.70;1.00;;;;;;4772244;30;20515;-70
2022/06/04 06:08:43;;;;;;;2.53;2.08;;;25.00;1.00;;;;;;4772124;30;20051;-71
2022/06/04 06:11:11;;;;;;;3.92;2.30;;;25.80;1.00;;;;;;4771336;30;20431;-70
2022/06/04 06:13:38;;;;;;;3.40;1.80;;;23.40;1.00;;;;;;4754293;30;20028;-70
2022/06/04 06:16:08;;;;;;;3.58;1.80;;;21.80;11.20;;;;;;4769842;30;20117;-71
2022/06/04 06:18:34;;;;;;;3.13;2.00;;;22.40;1.00;;;;;;4772114;30;20089;-72
2022/06/04 06:21:08;;;;;;;2.90;1.77;;;21.70;1.00;;;;;;4772059;30;20112;-71
2022/06/04 06:23:34;;;;;;;3.55;2.20;;;22.30;1.00;;;;;;4771076;30;20040;-71
2022/06/04 06:26:08;;;;;;;5.57;2.38;;;22.10;1.00;;;;;;4770568;30;20036;-72
2022/06/04 06:28:35;;;;;;;3.58;2.22;;;23.40;1.00;;;;;;4764576;30;20680;-71
2022/06/04 06:31:02;;;;;;;4.18;1.95;;;23.10;1.00;;;;;;4752777;30;20036;-70
2022/06/04 06:33:29;;;;;;;5.60;2.67;;;23.70;1.00;;;;;;4752766;30;20028;-71
2022/06/04 06:36:04;;;;;;;3.22;2.13;;;23.90;1.00;;;;;;4762384;30;20032;-70
2022/06/04 06:38:31;;;;;;;4.00;2.08;;;24.90;1.00;;;;;;4770884;30;20358;-71
2022/06/04 06:40:58;;;;;;;4.32;2.20;;;23.60;1.00;;;;;;4771857;30;20385;-71
2022/06/04 06:43:47;;;;;;;2.40;1.77;;;22.90;1.00;;;;;;4771582;30;20027;-70
2022/06/04 06:46:28;;;;;;;3.28;2.28;;;23.60;1.00;;;;;;4754241;30;20063;-71
2022/06/04 06:49:00;;;;;;;2.35;2.03;;;20.90;1.00;;;;;;4764523;30;20507;-71
2022/06/04 06:51:47;;;;;;;3.33;2.25;;;23.00;1.00;;;;;;4771545;30;20040;-71
2022/06/04 06:54:21;;;;;;;2.40;2.20;;;22.10;1.00;;;;;;4770339;30;20738;-71
2022/06/04 06:56:48;;;;;;;2.95;2.40;;;21.00;1.00;;;;;;4768684;30;20043;-71
2022/06/04 06:59:15;;;;;;;3.08;1.95;;;23.50;1.00;;;;;;4765463;30;20040;-71
2022/06/04 07:01:42;;;;;;;2.10;1.70;;;24.70;1.00;;;;;;4771352;30;20369;-70
2022/06/04 07:04:09;;;;;;;2.83;1.83;;;23.60;1.00;;;;;;4771232;30;20031;-70
2022/06/04 07:06:43;;;;;;;2.92;2.35;;;22.60;1.00;;;;;;4771289;30;20023;-70
2022/06/04 07:09:18;;;;;;;3.50;1.98;;;22.50;1.00;;;;;;4770916;30;20430;-71
2022/06/04 07:11:43;;;;;;;3.05;2.30;;;21.50;1.00;;;;;;4770898;30;20119;-70
2022/06/04 07:14:10;;;;;;;5.07;2.72;;;23.20;1.00;;;;;;4770463;30;20110;-71
2022/06/04 07:16:35;;;;;;;3.10;1.75;;;22.50;1.00;;;;;;4770217;30;20032;-70
2022/06/04 07:19:02;;;;;;;5.43;2.60;;;24.10;1.00;;;;;;4766202;30;20407;-71
2022/06/04 07:21:28;;;;;;;3.65;2.22;;;25.20;1.00;;;;;;4771277;30;20028;-70
2022/06/04 07:23:54;;;;;;;3.88;2.15;;;23.90;1.00;;;;;;4770842;30;20496;-70
2022/06/04 07:26:21;;;;;;;4.07;2.80;;;23.50;1.00;;;;;;4770746;30;20115;-70
2022/06/04 07:28:47;;;;;;;3.83;2.40;;;22.50;1.00;;;;;;4770194;30;20112;-70
2022/06/04 07:31:14;;;;;;;2.92;2.03;;;25.80;1.00;;;;;;4770744;30;20040;-70
2022/06/04 07:33:44;;;;;;;4.75;2.75;;;23.90;1.00;;;;;;4759721;30;20081;-70
2022/06/04 07:36:19;;;;;;;3.80;2.10;;;23.90;1.00;;;;;;4752942;30;20111;-71
2022/06/04 07:38:46;;;;;;;4.63;2.60;;;23.90;1.00;;;;;;4766046;30;20047;-71
2022/06/04 07:41:25;;;;;;;4.03;2.25;;;25.00;1.00;;;;;;4770493;30;20528;-71
2022/06/04 07:43:51;;;;;;;4.93;2.33;;;26.90;1.00;;;;;;4770487;30;20071;-71
2022/06/04 07:46:17;;;;;;;4.43;2.60;;;25.30;1.00;;;;;;4770521;30;20071;-71
2022/06/04 07:48:44;;;;;;;4.40;2.75;;;25.30;1.00;;;;;;4770382;30;20036;-71
2022/06/04 07:51:10;;;;;;;4.65;2.22;;;23.80;1.00;;;;;;4770164;30;20481;-73
2022/06/04 07:53:36;;;;;;;2.75;1.95;;;24.70;1.00;;;;;;4772152;30;20051;-72
2022/06/04 07:56:10;;;;;;;4.57;2.35;;;24.50;1.00;;;;;;4769575;30;20081;-72
2022/06/04 07:58:36;;;;;;;5.05;2.28;;;27.90;1.00;;;;;;4770676;30;20644;-72
2022/06/04 08:01:03;;;;;;;2.10;1.90;;;26.80;1.00;;;;;;4770319;30;20031;-72
2022/06/04 08:03:38;;;;;;;3.95;2.50;;;25.10;1.00;;;;;;4757556;30;20032;-72
2022/06/04 08:06:04;;;;;;;2.20;2.00;;;22.90;1.00;;;;;;4751992;30;20059;-72
2022/06/04 08:08:32;;;;;;;4.10;2.65;;;21.30;1.00;;;;;;4757227;30;20031;-71
2022/06/04 08:10:59;;;;;;;5.18;2.50;;;20.90;1.00;;;;;;4770164;30;20032;-71
2022/06/04 08:13:25;;;;;;;3.28;2.60;;;21.60;1.00;;;;;;4758390;30;20028;-72
2022/06/04 08:15:54;;;;;;;3.80;2.67;;;21.10;1.00;;;;;;4769367;30;20023;-71
2022/06/04 08:18:19;;;;;;;3.72;2.53;;;21.40;1.00;;;;;;4770047;30;20027;-71
2022/06/04 08:20:45;;;;;;;2.78;2.03;;;24.50;1.00;;;;;;4769959;30;20598;-72
2022/06/04 08:23:12;;;;;;;3.47;2.60;;;24.00;1.00;;;;;;4770008;30;20051;-72
2022/06/04 08:25:43;;;;;;;5.63;2.50;;;22.40;1.00;;;;;;4770146;30;20035;-71
2022/06/04 08:28:09;;;;;;;5.28;2.03;;;23.80;1.00;;;;;;4770207;30;20043;-71
2022/06/04 08:30:36;;;;;;;4.80;2.13;;;25.30;1.00;;;;;;4769763;30;20044;-71
2022/06/04 08:33:02;;;;;;;3.22;1.83;;;24.70;1.00;;;;;;4769687;30;20028;-72
2022/06/04 08:35:28;;;;;;;3.92;2.67;;;24.20;1.00;;;;;;4759606;30;20024;-72
2022/06/04 08:37:53;;;;;;;3.60;2.85;;;24.70;1.00;;;;;;4763582;30;20050;-71
2022/06/04 08:40:31;;;;;;;3.50;2.47;;;25.20;1.00;;;;;;4769684;30;20024;-72
2022/06/04 08:43:08;;;;;;;5.40;3.50;;;27.60;1.00;;;;;;4769725;30;20027;-72
2022/06/04 08:45:37;;;;;;;3.28;2.47;;;27.00;1.00;;;;;;4769693;30;20028;-71
2022/06/04 08:48:04;;;;;;;3.03;2.20;;;27.30;1.00;;;;;;4757808;30;20040;-71
2022/06/04 08:50:35;;;;;;;1.80;1.55;;;26.50;1.00;;;;;;4751874;30;20038;-72
2022/06/04 08:53:02;;;;;;;5.13;2.80;;;26.10;1.00;;;;;;4751723;30;20080;-71
2022/06/04 08:58:46;;;;;;;3.00;1.95;;;27.50;1.00;;;;;;4751821;30;20499;-71
2022/06/04 09:01:18;;;;;;;3.28;2.65;;;24.40;1.00;;;;;;4752833;30;20060;-71
2022/06/04 09:04:14;;;;;;;3.15;2.20;;;26.40;1.00;;;;;;4769481;30;20046;-71
2022/06/04 09:06:51;;;;;;;3.40;2.90;;;27.20;1.00;;;;;;4769278;30;20110;-71
2022/06/04 09:09:28;;;;;;;5.28;2.97;;;27.40;1.00;;;;;;4753161;30;20040;-71
2022/06/04 09:12:01;;;;;;;5.50;2.90;;;26.80;1.00;;;;;;4751555;30;20051;-71
2022/06/04 09:14:56;;;;;;;4.13;2.83;;;28.30;1.00;;;;;;4755233;30;20167;-71
2022/06/04 09:17:41;;;;;;;4.05;2.35;;;27.80;1.00;;;;;;4769357;30;20491;-71
2022/06/04 09:20:42;;;;;;;4.15;2.80;;;26.00;5.70;;;;;;4769537;30;20353;-72
2022/06/04 09:23:24;;;;;;;4.20;2.72;;;26.80;1.00;;;;;;4758734;30;20027;-71
2022/06/04 09:26:14;;;;;;;3.15;2.33;;;27.30;49.70;;;;;;4769170;30;20039;-71
2022/06/04 09:29:10;;;;;;;2.47;2.13;;;27.10;99.90;;;;;;4770996;30;20362;-71
2022/06/04 09:31:55;;;;;;;4.65;2.33;;;26.20;99.90;;;;;;4755007;30;20072;-71
2022/06/04 09:34:23;;;;;;;2.53;1.73;;;26.50;99.90;;;;;;4763228;30;20023;-71
2022/06/04 09:36:50;;;;;;;2.20;1.65;;;27.60;99.40;;;;;;4770427;30;20066;-71
2022/06/04 09:39:21;;;;;;;5.45;1.90;;;26.30;99.90;;;;;;4770789;30;20032;-71
2022/06/04 09:41:57;;;;;;;3.28;2.00;;;28.00;99.90;;;;;;4772600;30;20024;-72
2022/06/04 09:44:24;;;;;;;3.45;2.83;;;27.40;99.90;;;;;;4772713;30;20016;-71
2022/06/04 09:46:56;;;;;;;3.42;2.58;;;28.20;99.90;;;;;;4771047;30;20028;-71
2022/06/04 09:49:30;;;;;;;2.10;1.85;;;27.30;99.90;;;;;;4772584;30;20064;-72
2022/06/04 09:51:56;;;;;;;2.95;2.40;;;25.80;99.90;;;;;;4772493;30;20032;-71
2022/06/04 09:54:26;;;;;;;2.90;2.20;;;27.00;99.90;;;;;;4772345;30;20485;-72
2022/06/04 09:56:56;;;;;;;2.72;1.83;;;27.00;99.90;;;;;;4772503;30;20077;-72
2022/06/04 09:59:24;;;;;;;;;;;25.90;99.90;;;;;;4772876;30;20050;-72
2022/06/04 10:01:58;;;;;;;3.97;2.80;;;25.90;99.90;;;;;;4772319;30;20344;-71
2022/06/04 10:04:35;;;;;;;4.32;3.78;;;26.40;99.90;;;;;;4772416;30;20132;-71
2022/06/04 10:07:13;;;;;;;6.78;4.20;;;27.20;13.60;;;;;;4772171;30;20042;-71
2022/06/04 10:09:56;;;;;;;5.47;3.70;;;26.10;19.60;;;;;;4772056;30;20498;-71
2022/06/04 10:15:38;;;;;;;5.07;3.13;;;25.80;26.10;;;;;;4772257;30;20120;-71
2022/06/04 10:18:32;;;;;;;4.72;2.75;;;26.00;18.80;;;;;;4756282;30;20198;-71
2022/06/04 10:21:29;;;;;;;5.15;3.17;;;26.80;21.60;;;;;;4772119;30;20020;-71
2022/06/04 10:23:57;;;;;;;2.83;2.08;;;27.50;20.90;;;;;;4763449;30;20079;-70
2022/06/04 10:26:38;;;;;;;5.90;2.90;;;26.20;14.70;;;;;;4765319;30;20052;-71
2022/06/04 10:29:51;;;;;;;3.58;2.10;;;26.70;22.80;;;;;;4768669;30;20036;-70
2022/06/04 10:32:38;;;;;;;5.68;2.47;;;25.60;24.00;;;;;;4730279;30;20072;-70
2022/06/04 10:35:14;;;;;;;5.40;2.58;;;26.00;28.70;;;;;;4755606;30;20178;-70
2022/06/04 10:37:42;;;;;;;4.90;2.30;;;26.40;20.30;;;;;;4755838;30;20137;-71
2022/06/04 10:40:23;;;;;;;2.00;1.67;;;25.20;26.50;;;;;;4754331;30;20032;-71
2022/06/04 10:43:01;;;;;;;2.15;1.45;;;25.20;30.00;;;;;;4763291;30;20119;-71
2022/06/04 10:45:29;;;;;;;2.67;2.45;;;25.20;35.90;;;;;;4771534;30;20039;-69
2022/06/04 10:48:03;;;;;;;2.92;1.88;;;25.40;36.20;;;;;;4771388;30;20426;-71
2022/06/04 10:53:56;;;;;;;2.22;1.70;;;27.10;30.30;;;;;;4771311;30;20090;-71
2022/06/04 10:56:30;;;;;;;3.97;2.42;;;25.90;32.40;;;;;;4771256;30;20040;-71
2022/06/04 10:59:05;;;;;;;3.78;2.42;;;25.20;43.50;;;;;;4771034;30;20106;-70
2022/06/04 11:01:50;;;;;;;5.78;2.28;;;25.50;37.10;;;;;;4771122;30;20042;-70
2022/06/04 11:04:38;;;;;;;2.83;2.05;;;24.20;45.70;;;;;;4771157;30;20403;-70
2022/06/04 11:07:15;;;;;;;1.63;1.45;;;24.50;56.30;;;;;;4753377;30;20047;-70
2022/06/04 11:09:42;;;;;;;2.97;2.45;;;23.70;74.50;;;;;;4756893;30;20040;-71
2022/06/04 11:12:30;;;;;;;3.58;2.20;;;22.90;92.50;;;;;;4771108;30;20035;-71
2022/06/04 11:15:03;;;;;;;3.60;2.22;;;23.00;97.70;;;;;;4769494;30;20040;-71
2022/06/04 11:17:46;;;;;;;2.75;1.67;;;22.40;99.90;;;;;;4771374;30;20478;-71
2022/06/04 11:20:14;;;;;;;4.38;2.85;;;20.50;99.90;;;;;;4763554;30;20032;-70
2022/06/04 11:22:48;;;;;;;3.90;2.10;;;19.80;99.90;;;;;;4756602;30;20070;-72
2022/06/04 11:25:32;;;;;;;3.28;2.15;;;19.70;99.90;;;;;;4763748;30;20043;-71
2022/06/04 11:28:24;;;;;;;3.03;1.98;;;19.40;99.90;;;;;;4752952;30;20475;-71
2022/06/04 11:30:55;;;;;;;3.10;2.25;;;18.80;99.90;;;;;;4756291;30;20118;-71
2022/06/04 11:33:53;;;;;;;4.28;2.92;;;18.70;99.90;;;;;;4760072;30;20028;-71
2022/06/04 11:36:27;;;;;;;4.53;2.13;;;18.30;99.90;;;;;;4752997;30;20083;-71
2022/06/04 11:39:18;;;;;;;3.22;2.28;;;18.30;99.90;;;;;;4754848;30;20095;-70
2022/06/04 11:42:01;;;;;;;3.58;2.92;;;18.20;99.90;;;;;;4759345;30;20074;-71
2022/06/04 11:44:52;;;;;;;4.47;2.53;;;17.90;99.90;;;;;;4760090;30;20035;-71
2022/06/04 11:47:44;;;;;;;4.43;2.50;;;17.90;99.90;;;;;;4770194;30;20031;-71
2022/06/04 11:50:34;;;;;;;2.28;1.60;;;17.80;99.90;;;;;;4770818;30;20043;-71
2022/06/04 11:53:17;;;;;;;3.78;2.53;;;18.00;99.90;;;;;;4769713;30;20027;-71
2022/06/04 11:56:03;;;;;;;5.35;3.33;;;18.00;99.90;;;;;;4759168;30;20032;-71
2022/06/04 11:58:34;;;;;;;6.13;3.13;;;18.20;99.90;;;;;;4770784;30;20081;-72
2022/06/04 12:01:05;;;;;;;5.32;2.88;;;17.80;99.90;;;;;;4763836;30;20024;-72
2022/06/04 12:03:33;;;;;;;9.30;3.75;;;17.60;99.90;;;;;;4752865;30;20115;-72
2022/06/04 12:06:30;;;;;;;4.60;3.17;;;18.00;99.90;;;;;;4752640;30;20526;-71
2022/06/04 12:09:07;;;;;;;6.25;3.63;;;18.00;99.90;;;;;;4759760;30;20042;-71
2022/06/04 12:11:40;;;;;;;5.38;3.40;;;18.00;99.90;;;;;;4770355;30;20664;-71
2022/06/04 12:14:30;;;;;;;5.05;3.17;;;18.00;99.90;;;;;;4770103;30;20035;-71
2022/06/04 12:17:20;;;;;;;6.43;3.10;;;18.00;99.90;;;;;;4770096;30;20370;-72
2022/06/04 12:25:45;;;;;;;4.20;3.10;;;18.10;99.90;;;;;;4767674;30;20048;-71
2022/06/04 12:28:21;;;;;;;4.13;2.58;;;18.00;99.90;;;;;;4752224;30;20166;-71
2022/06/04 12:30:47;;;;;;;3.67;2.17;;;18.20;99.90;;;;;;4761733;30;20032;-71
2022/06/04 12:33:33;;;;;;;7.68;3.78;;;17.90;99.90;;;;;;4769843;30;20027;-71
2022/06/04 12:36:06;;;;;;;6.50;3.53;;;17.80;99.90;;;;;;4767275;30;20136;-71
2022/06/04 12:38:40;;;;;;;8.50;4.05;;;17.90;99.90;;;;;;4752464;30;20042;-71
2022/06/04 12:41:15;;;;;;;6.85;3.38;;;18.00;99.90;;;;;;4751937;30;20028;-71
2022/06/04 12:43:44;;;;;;;5.70;3.53;;;18.00;99.90;;;;;;4758888;30;20036;-71
2022/06/04 12:46:22;;;;;;;7.47;3.53;;;17.50;99.90;;;;;;4769738;30;20043;-72
2022/06/04 12:49:06;;;;;;;4.25;2.92;;;17.80;99.90;;;;;;4769653;30;20288;-72
2022/06/04 12:51:43;;;;;;;5.30;3.13;;;17.70;99.90;;;;;;4769631;30;20036;-71
2022/06/04 12:54:27;;;;;;;5.18;3.05;;;17.80;99.90;;;;;;4767738;30;20063;-72
2022/06/04 12:57:13;;;;;;;5.60;2.08;;;17.80;99.90;;;;;;4762840;30;20106;-71
2022/06/04 12:59:45;;;;;;;5.10;3.45;;;17.70;99.90;;;;;;4752001;30;20351;-72
2022/06/04 13:02:34;;;;;;;5.80;3.15;;;17.60;99.90;;;;;;4751208;30;20044;-72
2022/06/04 13:05:12;;;;;;;6.65;3.05;;;17.80;99.90;;;;;;4762511;30;20066;-71
2022/06/04 13:07:49;;;;;;;5.63;2.80;;;17.90;99.90;;;;;;4769398;30;20030;-71
2022/06/04 13:10:26;;;;;;;5.10;3.00;;;17.80;99.90;;;;;;4769320;30;20043;-71
2022/06/04 13:13:16;;;;;;;6.32;2.88;;;18.10;99.90;;;;;;4769351;30;20039;-71
2022/06/04 13:15:53;;;;;;;7.70;2.83;;;18.30;99.90;;;;;;4769254;30;20032;-71
2022/06/04 13:18:32;;;;;;;6.10;2.60;;;18.10;99.90;;;;;;4769285;30;20043;-72
2022/06/04 13:21:01;;;;;;;5.57;2.63;;;18.30;99.90;;;;;;4769460;30;20725;-72
2022/06/04 13:23:55;;;;;;;6.00;3.45;;;17.80;99.90;;;;;;4767855;30;20291;-71
2022/06/04 13:26:39;;;;;;;8.50;2.78;;;18.20;99.90;;;;;;4757854;30;20020;-72
2022/06/04 13:29:29;;;;;;;4.78;2.60;;;18.40;99.90;;;;;;4769120;30;20046;-71
2022/06/04 13:32:19;;;;;;;4.00;2.63;;;18.10;99.90;;;;;;4768962;30;20089;-72
2022/06/04 13:34:46;;;;;;;6.38;3.35;;;18.40;99.90;;;;;;4767678;30;20111;-72
2022/06/04 13:37:22;;;;;;;5.60;3.40;;;18.60;99.90;;;;;;4755937;30;20028;-71
2022/06/04 13:39:50;;;;;;;6.57;3.33;;;18.80;99.90;;;;;;4768480;30;20069;-71
2022/06/04 13:42:32;;;;;;;4.15;2.63;;;18.70;99.90;;;;;;4767558;30;20031;-71
2022/06/04 13:45:27;;;;;;;4.82;3.03;;;18.60;99.90;;;;;;4767433;30;20039;-71
2022/06/04 13:47:57;;;;;;;5.88;3.08;;;18.30;99.90;;;;;;4765614;30;20032;-71
2022/06/04 13:50:29;;;;;;;5.82;3.17;;;18.50;99.90;;;;;;4769065;30;20080;-71